Terminal Aerodrome Forecast
Issued by NWS Pendleton, OR

Home | Current Version | Previous Version | Text Only | Print | Product List | Glossary On
Versions: 1 2 3 4 5 6 7 8 9 10 11 12 13
000
FTUS46 KPDT 312320
TAFPDT
TAF
KPDT 312320Z 0100/0124 29010KT P6SM FEW070
     FM010300 25008KT P6SM SCT070 SCT200
     FM010600 13006KT P6SM SCT070 SCT200
     FM011800 28007KT P6SM BKN200=

USA.gov is the U.S. government's official web portal to all federal, state and local government web resources and services.